createdAt,value
2019-05-19T19:48:16.222Z,7.40
2019-05-19T19:50:50.123Z,8.50
2019-05-19T19:53:24.138Z,10.70
2019-05-19T19:56:00.998Z,9.57
2019-05-19T19:58:36.984Z,7.93
2019-05-19T20:01:12.754Z,8.33
2019-05-19T20:03:49.069Z,7.67
2019-05-19T20:06:22.479Z,8.37
2019-05-19T20:08:56.188Z,7.17
2019-05-19T20:11:29.325Z,7.37
2019-05-19T20:14:05.689Z,8.50
2019-05-19T20:16:44.176Z,8.50
2019-05-19T20:19:18.341Z,9.60
2019-05-19T20:21:54.807Z,9.40
2019-05-19T20:24:29.832Z,10.50
2019-05-19T20:27:02.850Z,11.10
2019-05-19T20:29:42.308Z,10.60
2019-05-19T20:32:24.267Z,11.80
2019-05-19T20:34:59.545Z,11.37
2019-05-19T20:37:32.751Z,11.10
2019-05-19T20:40:11.186Z,12.60
2019-05-19T20:42:45.015Z,12.23
2019-05-19T20:45:18.362Z,11.60
2019-05-19T20:47:52.467Z,11.40
2019-05-19T20:50:30.957Z,12.50
2019-05-19T20:53:05.767Z,11.07
2019-05-19T20:55:39.992Z,10.63
2019-05-19T20:58:13.350Z,11.53
2019-05-19T21:00:50.578Z,11.77
2019-05-19T21:03:21.940Z,12.57
2019-05-19T21:05:57.850Z,13.13
2019-05-19T21:08:31.884Z,12.97
2019-05-19T21:11:05.301Z,13.10
2019-05-19T21:13:38.564Z,13.20
2019-05-19T21:16:12.159Z,13.33
2019-05-19T21:18:47.127Z,13.43
2019-05-19T21:21:20.275Z,12.97
2019-05-19T21:23:53.706Z,14.23
2019-05-19T21:26:26.887Z,14.47
2019-05-19T21:28:59.551Z,13.50
2019-05-19T21:31:32.906Z,14.73
2019-05-19T21:34:06.314Z,15.50
2019-05-19T21:36:40.286Z,13.87
2019-05-19T21:39:13.850Z,14.10
2019-05-19T21:41:46.772Z,15.10
2019-05-19T21:44:19.872Z,14.93
2019-05-19T21:46:53.369Z,13.80
2019-05-19T21:49:26.562Z,13.00
2019-05-19T21:51:59.328Z,15.73
2019-05-19T21:54:32.335Z,14.90
2019-05-19T21:57:06.045Z,14.00
2019-05-19T21:59:39.555Z,14.63
2019-05-19T22:02:13.041Z,16.53
2019-05-19T22:04:46.185Z,14.68
2019-05-19T22:07:29.060Z,15.90
2019-05-19T22:10:02.556Z,16.10
2019-05-19T22:12:35.743Z,14.97
2019-05-19T22:15:10.957Z,15.83
2019-05-19T22:17:44.005Z,15.13
2019-05-19T22:20:17.497Z,16.10
2019-05-19T22:22:50.553Z,15.80
2019-05-19T22:25:26.509Z,15.00
2019-05-19T22:28:00.017Z,16.00
2019-05-19T22:30:32.655Z,15.10
2019-05-19T22:33:06.408Z,16.23
2019-05-19T22:35:40.382Z,15.68
2019-05-19T22:38:13.424Z,16.30
2019-05-19T22:40:46.001Z,17.92
2019-05-19T22:43:19.759Z,16.87
2019-05-19T22:45:53.192Z,17.82
2019-05-19T22:48:26.578Z,17.77
2019-05-19T22:51:00.072Z,17.10
2019-05-19T22:53:32.804Z,17.35
2019-05-19T22:56:05.995Z,17.65
2019-05-19T22:58:41.513Z,19.23
2019-05-19T23:01:14.280Z,17.02
2019-05-19T23:03:46.967Z,18.80
2019-05-19T23:06:20.063Z,20.77
2019-05-19T23:08:53.468Z,19.95
2019-05-19T23:11:27.052Z,19.85
2019-05-19T23:14:01.811Z,20.62
2019-05-19T23:16:35.093Z,21.45
2019-05-19T23:19:08.604Z,21.48
2019-05-19T23:21:42.218Z,20.70
2019-05-19T23:24:15.577Z,19.25
2019-05-19T23:26:48.884Z,21.02
2019-05-19T23:29:21.514Z,22.75
2019-05-19T23:32:06.222Z,23.47
2019-05-19T23:34:30.078Z,22.10
2019-05-19T23:37:03.076Z,22.62
2019-05-19T23:39:36.757Z,24.15
2019-05-19T23:42:09.999Z,22.73
2019-05-19T23:44:43.450Z,22.20
2019-05-19T23:47:16.439Z,23.92
2019-05-19T23:49:49.929Z,24.50
2019-05-19T23:52:24.231Z,23.40
2019-05-19T23:54:56.929Z,22.65
2019-05-19T23:57:29.797Z,22.90
